createdAt,value
2023-02-12T00:02:08.074Z,103215.25
2023-02-12T00:04:57.235Z,103216.34
2023-02-12T00:07:47.846Z,103209.75
2023-02-12T00:10:41.050Z,103213.59
2023-02-12T00:13:32.230Z,103215.25
2023-02-12T00:16:26.869Z,103225.38
2023-02-12T00:19:16.063Z,103222.09
2023-02-12T00:22:05.370Z,103221.25
2023-02-12T00:24:56.481Z,103227.25
2023-02-12T00:27:45.824Z,103222.59
2023-02-12T00:30:35.221Z,103205.53
2023-02-12T00:33:24.483Z,103217.56
2023-02-12T00:36:18.135Z,103205.16
2023-02-12T00:39:07.365Z,103211.25
2023-02-12T00:41:59.532Z,103219.28
2023-02-12T00:44:48.701Z,103215.41
2023-02-12T00:47:37.850Z,103205.44
2023-02-12T00:50:28.453Z,103212.97
2023-02-12T00:53:19.680Z,103214.38
2023-02-12T00:56:09.293Z,103200.63
2023-02-12T00:59:00.486Z,103197.69
2023-02-12T01:01:49.825Z,103205.09
2023-02-12T01:04:39.175Z,103197.69
2023-02-12T01:07:28.397Z,103181.13
2023-02-12T01:10:20.847Z,103188.56
2023-02-12T01:13:13.130Z,103189.41
2023-02-12T01:16:17.638Z,103187.22
2023-02-12T01:19:07.497Z,103183.91
2023-02-12T01:21:56.879Z,103182.00
2023-02-12T01:24:46.148Z,103174.88
2023-02-12T01:27:35.996Z,103173.50
2023-02-12T01:30:25.580Z,103174.63
2023-02-12T01:33:16.301Z,103168.56
2023-02-12T01:36:05.940Z,103151.47
2023-02-12T01:38:55.461Z,103155.63
2023-02-12T01:41:46.389Z,103155.63
2023-02-12T01:44:39.078Z,103147.59
2023-02-12T01:47:28.367Z,103166.38
2023-02-12T01:50:21.853Z,103151.72
2023-02-12T01:53:11.285Z,103150.38
2023-02-12T01:56:03.273Z,103142.97
2023-02-12T01:58:55.717Z,103138.78
2023-02-12T02:01:45.305Z,103144.91
2023-02-12T02:04:39.678Z,103134.75
2023-02-12T02:07:31.001Z,103144.09
2023-02-12T02:10:20.428Z,103136.69
2023-02-12T02:13:27.595Z,103133.66
2023-02-12T02:16:25.609Z,103133.13
2023-02-12T02:19:30.299Z,103133.38
2023-02-12T02:22:35.219Z,103133.66
2023-02-12T02:26:06.548Z,103132.31
2023-02-12T02:29:28.744Z,103131.47
2023-02-12T02:32:24.765Z,103135.00
2023-02-12T02:35:19.761Z,103136.13
2023-02-12T02:38:20.858Z,103135.81
2023-02-12T02:41:19.329Z,103143.44
2023-02-12T02:44:15.294Z,103139.97
2023-02-12T02:47:10.999Z,103134.75
2023-02-12T02:50:07.450Z,103138.56
2023-02-12T02:53:03.460Z,103142.44
2023-02-12T02:55:58.157Z,103134.66
2023-02-12T02:58:53.033Z,103144.03
2023-02-12T03:01:46.797Z,103147.34
2023-02-12T03:04:40.207Z,103140.78
2023-02-12T03:07:37.910Z,103127.03
2023-02-12T03:10:33.436Z,103135.00
2023-02-12T03:13:27.799Z,103137.47
2023-02-12T03:16:24.479Z,103135.50
2023-02-12T03:19:20.576Z,103130.59
2023-02-12T03:22:15.040Z,103129.75
2023-02-12T03:25:15.009Z,103117.09
2023-02-12T03:28:10.066Z,103129.53
2023-02-12T03:31:08.729Z,103117.94
2023-02-12T03:34:10.512Z,103126.19
2023-02-12T03:37:06.782Z,103115.75
2023-02-12T03:40:02.324Z,103109.09
2023-02-12T03:43:02.966Z,103111.63
2023-02-12T03:45:59.596Z,103108.91
2023-02-12T03:49:00.638Z,103100.88
2023-02-12T03:51:49.996Z,103110.53
2023-02-12T03:54:39.433Z,103109.13
2023-02-12T03:57:35.236Z,103114.88
2023-02-12T04:00:26.891Z,103098.63
2023-02-12T04:03:16.287Z,103100.34
2023-02-12T04:06:06.319Z,103100.63
2023-02-12T04:08:58.729Z,103108.81
2023-02-12T04:12:02.927Z,103099.53
2023-02-12T04:14:59.491Z,103097.06
2023-02-12T04:17:58.223Z,103104.19
2023-02-12T04:20:59.930Z,103100.03
2023-02-12T04:24:00.153Z,103093.75
2023-02-12T04:26:55.829Z,103098.13
2023-02-12T04:29:52.532Z,103099.22
2023-02-12T04:32:48.575Z,103095.59
2023-02-12T04:35:48.059Z,103091.47
2023-02-12T04:38:42.017Z,103107.94
2023-02-12T04:41:33.056Z,103105.19
2023-02-12T04:44:26.361Z,103109.84
2023-02-12T04:47:18.218Z,103110.09
2023-02-12T04:50:09.305Z,103104.88
2023-02-12T04:52:59.850Z,103118.06
2023-02-12T04:55:50.739Z,103116.13
2023-02-12T04:58:40.027Z,103112.28
2023-02-12T05:01:31.348Z,103125.69
2023-02-12T05:04:21.481Z,103115.50
2023-02-12T05:07:12.458Z,103120.50
2023-02-12T05:10:03.292Z,103113.84
2023-02-12T05:12:53.854Z,103127.03
2023-02-12T05:15:43.170Z,103127.28
2023-02-12T05:18:33.330Z,103130.53
2023-02-12T05:21:22.642Z,103133.28
2023-02-12T05:24:11.924Z,103118.94
2023-02-12T05:27:02.513Z,103125.81
2023-02-12T05:29:51.712Z,103128.53
2023-02-12T05:32:40.914Z,103124.69
2023-02-12T05:35:30.101Z,103124.94
2023-02-12T05:38:19.588Z,103116.38
2023-02-12T05:41:10.816Z,103124.84
2023-02-12T05:44:01.683Z,103120.72
2023-02-12T05:46:51.095Z,103118.25
2023-02-12T05:49:40.320Z,103115.81
2023-02-12T05:52:29.577Z,103114.69
2023-02-12T05:55:19.076Z,103118.00
2023-02-12T05:58:08.280Z,103119.38
2023-02-12T06:00:58.917Z,103122.13
2023-02-12T06:03:48.180Z,103118.25
2023-02-12T06:06:37.793Z,103118.56
2023-02-12T06:09:27.391Z,103119.38
2023-02-12T06:12:17.751Z,103112.53
2023-02-12T06:15:07.603Z,103118.56
2023-02-12T06:17:58.162Z,103119.38
2023-02-12T06:20:47.416Z,103114.47
2023-02-12T06:23:36.590Z,103102.66
2023-02-12T06:26:26.127Z,103096.41
2023-02-12T06:29:15.332Z,103099.13
2023-02-12T06:32:04.783Z,103100.41
2023-02-12T06:34:55.798Z,103083.16
2023-02-12T06:37:44.938Z,103107.34
2023-02-12T06:40:34.612Z,103097.50
2023-02-12T06:43:23.934Z,103094.94
2023-02-12T06:46:15.329Z,103084.59
2023-02-12T06:49:05.021Z,103091.13
2023-02-12T06:51:55.649Z,103091.19
2023-02-12T06:54:45.005Z,103082.41
2023-02-12T06:57:34.304Z,103091.53
2023-02-12T07:00:24.576Z,103092.91
2023-02-12T07:03:13.773Z,103080.31
2023-02-12T07:06:05.677Z,103089.72
2023-02-12T07:08:56.669Z,103083.69
2023-02-12T07:11:45.823Z,103084.75
2023-02-12T07:14:35.461Z,103078.91
2023-02-12T07:17:24.667Z,103097.88
2023-02-12T07:20:15.000Z,103097.88
2023-02-12T07:23:04.366Z,103089.66
2023-02-12T07:26:10.763Z,103086.88
2023-02-12T07:28:59.956Z,103088.56
2023-02-12T07:31:49.281Z,103103.91
2023-02-12T07:34:38.459Z,103106.91
2023-02-12T07:37:27.735Z,103096.16
2023-02-12T07:40:17.178Z,103122.25
2023-02-12T07:43:07.915Z,103112.06
2023-02-12T07:46:06.781Z,103119.28
2023-02-12T07:48:56.266Z,103123.06
2023-02-12T07:51:45.502Z,103123.03
2023-02-12T07:54:34.934Z,103124.97
2023-02-12T07:57:24.090Z,103128.53
2023-02-12T08:00:17.429Z,103126.06
2023-02-12T08:03:06.558Z,103133.44
2023-02-12T08:05:56.034Z,103134.28
2023-02-12T08:08:45.881Z,103142.75
2023-02-12T08:11:35.589Z,103141.09
2023-02-12T08:14:25.058Z,103135.06
2023-02-12T08:17:15.664Z,103138.94
2023-02-12T08:20:04.974Z,103145.56
2023-02-12T08:22:54.184Z,103145.81
2023-02-12T08:25:43.454Z,103140.91
2023-02-12T08:28:32.704Z,103146.97
2023-02-12T08:31:25.452Z,103140.75
2023-02-12T08:34:22.373Z,103139.69
2023-02-12T08:37:11.654Z,103151.25
2023-02-12T08:40:00.888Z,103158.63
2023-02-12T08:42:50.054Z,103153.72
2023-02-12T08:45:39.345Z,103143.03
2023-02-12T08:48:28.676Z,103141.94
2023-02-12T08:51:22.645Z,103141.94
2023-02-12T08:54:14.814Z,103138.03
2023-02-12T08:57:04.973Z,103131.47
2023-02-12T08:59:54.218Z,103136.78
2023-02-12T09:02:43.474Z,103140.66
2023-02-12T09:05:32.805Z,103134.38
2023-02-12T09:08:23.415Z,103128.81
2023-02-12T09:11:16.658Z,103130.84
2023-02-12T09:14:07.631Z,103133.09
2023-02-12T09:16:58.356Z,103132.00
2023-02-12T09:19:47.838Z,103134.22
2023-02-12T09:22:38.828Z,103132.88
2023-02-12T09:25:29.507Z,103128.00
2023-02-12T09:28:18.717Z,103125.56
2023-02-12T09:31:09.651Z,103116.53
2023-02-12T09:34:02.767Z,103125.94
2023-02-12T09:36:51.935Z,103114.47
2023-02-12T09:39:41.305Z,103113.97
2023-02-12T09:43:06.787Z,103111.78
2023-02-12T09:46:06.015Z,103106.09
2023-02-12T09:49:06.292Z,103106.72
2023-02-12T09:51:56.487Z,103093.53
2023-02-12T09:54:46.613Z,103099.06
2023-02-12T09:57:37.909Z,103098.31
2023-02-12T10:00:32.094Z,103084.59
2023-02-12T10:03:21.447Z,103090.69
2023-02-12T10:06:16.645Z,103083.28
2023-02-12T10:09:31.972Z,103084.94
2023-02-12T10:12:32.508Z,103087.34
2023-02-12T10:15:41.481Z,103091.38
2023-02-12T10:19:04.960Z,103092.44
2023-02-12T10:22:04.798Z,103079.09
2023-02-12T10:25:18.299Z,103087.97
2023-02-12T10:28:15.335Z,103085.81
2023-02-12T10:31:13.222Z,103086.91
2023-02-12T10:34:12.891Z,103092.47
2023-02-12T10:37:07.259Z,103083.69
2023-02-12T10:40:01.531Z,103091.47
2023-02-12T10:42:53.712Z,103087.66
2023-02-12T10:45:45.385Z,103087.53
2023-02-12T10:48:40.242Z,103089.19
2023-02-12T10:52:00.324Z,103089.50
2023-02-12T10:54:50.510Z,103089.81
2023-02-12T10:57:40.836Z,103071.94
2023-02-12T11:00:34.645Z,103067.56
2023-02-12T11:03:30.625Z,103075.25
2023-02-12T11:06:25.793Z,103068.06
2023-02-12T11:09:30.152Z,103074.78
2023-02-12T11:12:31.854Z,103062.66
2023-02-12T11:15:24.700Z,103074.84
2023-02-12T11:18:26.133Z,103080.66
2023-02-12T11:21:15.522Z,103079.28
2023-02-12T11:27:24.791Z,103065.31
2023-02-12T11:30:19.529Z,103063.13
2023-02-12T11:33:28.596Z,103071.09
2023-02-12T11:36:28.702Z,103067.88
2023-02-12T11:39:24.926Z,103055.28
2023-02-12T11:42:22.541Z,103040.16
2023-02-12T11:45:19.730Z,103055.28
2023-02-12T11:48:20.203Z,103043.16
2023-02-12T11:51:19.462Z,103037.31
2023-02-12T11:54:20.641Z,103026.97
2023-02-12T11:57:38.803Z,103038.44
2023-02-12T12:00:34.419Z,103041.13
2023-02-12T12:03:29.665Z,103038.94
2023-02-12T12:06:30.528Z,103037.47
2023-02-12T12:09:26.703Z,103030.66
2023-02-12T12:12:23.454Z,103032.34
2023-02-12T12:15:39.240Z,103033.78
2023-02-12T12:18:48.567Z,103015.81
2023-02-12T12:21:44.037Z,103002.94
2023-02-12T12:24:42.257Z,103002.56
2023-02-12T12:27:59.070Z,102992.09
2023-02-12T12:31:04.091Z,102981.84
2023-02-12T12:33:59.607Z,102984.13
2023-02-12T12:37:34.555Z,102982.53
2023-02-12T12:40:43.309Z,102972.38
2023-02-12T12:43:47.702Z,102959.13
2023-02-12T12:46:54.532Z,102956.19
2023-02-12T12:49:59.227Z,102961.81
2023-02-12T12:53:20.861Z,102953.75
2023-02-12T12:56:47.386Z,102965.03
2023-02-12T13:00:09.396Z,102968.75
2023-02-12T13:03:58.680Z,102949.72
2023-02-12T13:07:05.421Z,102951.56
2023-02-12T13:10:20.259Z,102935.28
2023-02-12T13:13:26.414Z,102942.28
2023-02-12T13:16:22.738Z,102937.06
2023-02-12T13:19:25.818Z,102942.91
2023-02-12T13:22:21.184Z,102948.19
2023-02-12T13:25:29.045Z,102942.25
2023-02-12T13:28:29.682Z,102949.28
2023-02-12T13:31:33.646Z,102947.97
2023-02-12T13:34:29.738Z,102936.84
2023-02-12T13:37:26.773Z,102930.47
2023-02-12T13:40:19.702Z,102940.78
2023-02-12T13:43:31.240Z,102938.41
2023-02-12T13:46:29.968Z,102932.75
2023-02-12T13:49:32.196Z,102925.41
2023-02-12T13:52:34.351Z,102919.34
2023-02-12T13:55:30.527Z,102927.88
2023-02-12T13:58:52.514Z,102918.28
2023-02-12T14:01:47.480Z,102919.94
2023-02-12T14:04:42.254Z,102920.47
2023-02-12T14:07:45.668Z,102915.78
2023-02-12T14:10:39.083Z,102909.44
2023-02-12T14:13:34.218Z,102914.53
2023-02-12T14:16:40.804Z,102902.16
2023-02-12T14:19:55.534Z,102896.34
2023-02-12T14:23:32.479Z,102900.47
2023-02-12T14:26:25.311Z,102896.97
2023-02-12T14:29:21.917Z,102891.47
2023-02-12T14:33:14.736Z,102898.38
2023-02-12T14:36:30.720Z,102896.00
2023-02-12T14:39:31.031Z,102899.63
2023-02-12T14:42:45.971Z,102900.78
2023-02-12T14:45:37.945Z,102888.44
2023-02-12T14:48:53.308Z,102889.03
2023-02-12T14:51:52.312Z,102884.34
2023-02-12T14:54:47.120Z,102874.75
2023-02-12T14:57:40.647Z,102887.09
2023-02-12T15:00:36.332Z,102884.63
2023-02-12T15:03:33.687Z,102890.94
2023-02-12T15:06:31.242Z,102886.28
2023-02-12T15:09:31.413Z,102881.06
2023-02-12T15:12:31.397Z,102865.13
2023-02-12T15:15:30.925Z,102884.38
2023-02-12T15:18:26.651Z,102880.25
2023-02-12T15:21:23.876Z,102863.75
2023-02-12T15:24:15.311Z,102880.47
2023-02-12T15:27:07.215Z,102884.31
2023-02-12T15:29:56.524Z,102889.81
2023-02-12T15:32:47.289Z,102876.63
2023-02-12T15:35:41.397Z,102886.25
2023-02-12T15:38:34.863Z,102885.75
2023-02-12T15:41:35.844Z,102896.19
2023-02-12T15:44:29.901Z,102888.22
2023-02-12T15:47:26.317Z,102879.97
2023-02-12T15:50:17.067Z,102897.00
2023-02-12T15:53:06.446Z,102887.09
2023-02-12T15:55:56.434Z,102876.59
2023-02-12T15:58:52.530Z,102882.09
2023-02-12T16:01:55.798Z,102876.59
2023-02-12T16:04:46.248Z,102866.97
2023-02-12T16:07:39.694Z,102887.81
2023-02-12T16:10:29.327Z,102877.69
2023-02-12T16:13:22.253Z,102880.44
2023-02-12T16:16:23.329Z,102878.75
2023-02-12T16:19:23.293Z,102857.09
2023-02-12T16:22:19.635Z,102885.09
2023-02-12T16:25:24.678Z,102884.56
2023-02-12T16:28:26.669Z,102881.25
2023-02-12T16:31:17.863Z,102869.41
2023-02-12T16:34:07.464Z,102880.31
2023-02-12T16:36:58.108Z,102878.66
2023-02-12T16:40:20.240Z,102867.94
2023-02-12T16:43:28.171Z,102867.63
2023-02-12T16:46:19.511Z,102866.50
2023-02-12T16:49:17.295Z,102860.44
2023-02-12T16:52:32.534Z,102857.88
2023-02-12T16:55:22.087Z,102860.94
2023-02-12T16:58:11.399Z,102858.97
2023-02-12T17:01:05.268Z,102848.53
2023-02-12T17:03:56.242Z,102853.97
2023-02-12T17:06:45.592Z,102855.88
2023-02-12T17:09:36.323Z,102856.13
2023-02-12T17:12:25.873Z,102865.91
2023-02-12T17:15:23.350Z,102863.91
2023-02-12T17:18:12.829Z,102870.13
2023-02-12T17:21:06.280Z,102883.28
2023-02-12T17:23:55.521Z,102882.94
2023-02-12T17:26:46.203Z,102883.16
2023-02-12T17:29:35.482Z,102875.13
2023-02-12T17:32:25.523Z,102873.50
2023-02-12T17:35:15.242Z,102875.97
2023-02-12T17:38:04.525Z,102871.25
2023-02-12T17:40:54.450Z,102866.25
2023-02-12T17:43:46.523Z,102865.19
2023-02-12T17:46:35.770Z,102877.19
2023-02-12T17:49:25.253Z,102876.84
2023-02-12T17:52:14.962Z,102877.44
2023-02-12T17:55:05.077Z,102877.13
2023-02-12T17:57:54.921Z,102862.81
2023-02-12T18:00:45.600Z,102867.78
2023-02-12T18:03:35.047Z,102867.72
2023-02-12T18:06:27.251Z,102861.13
2023-02-12T18:09:16.573Z,102866.09
2023-02-12T18:12:06.693Z,102867.44
2023-02-12T18:14:59.200Z,102852.81
2023-02-12T18:17:50.060Z,102871.19
2023-02-12T18:20:41.865Z,102870.03
2023-02-12T18:23:31.355Z,102872.75
2023-02-12T18:26:21.095Z,102856.47
2023-02-12T18:29:10.342Z,102852.00
2023-02-12T18:32:00.079Z,102863.28
2023-02-12T18:34:50.795Z,102872.22
2023-02-12T18:37:43.239Z,102848.31
2023-02-12T18:40:32.864Z,102862.53
2023-02-12T18:43:24.368Z,102861.63
2023-02-12T18:46:16.513Z,102852.81
2023-02-12T18:49:06.962Z,102849.19
2023-02-12T18:51:57.994Z,102863.91
2023-02-12T18:54:47.200Z,102867.44
2023-02-12T18:57:36.495Z,102861.63
2023-02-12T19:00:25.882Z,102862.97
2023-02-12T19:03:15.190Z,102859.16
2023-02-12T19:06:05.700Z,102849.06
2023-02-12T19:08:58.122Z,102859.34
2023-02-12T19:11:49.543Z,102849.91
2023-02-12T19:14:38.806Z,102854.38
2023-02-12T19:17:28.102Z,102857.13
2023-02-12T19:20:17.497Z,102858.44
2023-02-12T19:23:06.692Z,102846.59
2023-02-12T19:25:57.330Z,102849.31
2023-02-12T19:28:46.781Z,102844.81
2023-02-12T19:31:38.728Z,102846.78
2023-02-12T19:34:28.115Z,102831.38
2023-02-12T19:37:17.468Z,102828.09
2023-02-12T19:40:08.575Z,102830.06
2023-02-12T19:42:59.192Z,102820.97
2023-02-12T19:45:48.384Z,102831.91
2023-02-12T19:48:38.162Z,102828.88
2023-02-12T19:51:29.581Z,102822.97
2023-02-12T19:54:21.137Z,102820.75
2023-02-12T19:57:12.576Z,102812.91
2023-02-12T20:00:04.693Z,102812.81
2023-02-12T20:02:54.912Z,102819.69
2023-02-12T20:05:46.815Z,102818.59
2023-02-12T20:08:37.116Z,102805.97
2023-02-12T20:11:30.001Z,102800.84
2023-02-12T20:14:20.952Z,102788.34
2023-02-12T20:17:11.674Z,102789.44
2023-02-12T20:20:01.038Z,102792.75
2023-02-12T20:22:50.561Z,102784.78
2023-02-12T20:25:44.820Z,102789.38
2023-02-12T20:28:34.981Z,102786.56
2023-02-12T20:31:29.163Z,102774.25
2023-02-12T20:34:22.207Z,102781.66
2023-02-12T20:37:11.626Z,102784.91
2023-02-12T20:40:00.875Z,102780.59
2023-02-12T20:42:50.271Z,102770.69
2023-02-12T20:45:41.919Z,102772.41
2023-02-12T20:48:31.420Z,102757.47
2023-02-12T20:51:24.080Z,102765.81
2023-02-12T20:54:13.669Z,102758.19
2023-02-12T20:57:07.053Z,102756.53
2023-02-12T20:59:57.075Z,102749.50
2023-02-12T21:02:46.353Z,102759.66
2023-02-12T21:05:35.588Z,102756.38
2023-02-12T21:08:27.768Z,102750.66
2023-02-12T21:11:21.731Z,102759.09
2023-02-12T21:14:21.990Z,102756.41
2023-02-12T21:17:12.300Z,102757.00
2023-02-12T21:20:02.117Z,102753.69
2023-02-12T21:22:51.381Z,102757.00
2023-02-12T21:25:42.059Z,102752.38
2023-02-12T21:28:32.440Z,102757.00
2023-02-12T21:31:24.824Z,102749.25
2023-02-12T21:34:17.088Z,102752.53
2023-02-12T21:37:06.422Z,102753.69
2023-02-12T21:39:55.613Z,102744.09
2023-02-12T21:42:46.691Z,102750.13
2023-02-12T21:45:36.229Z,102748.47
2023-02-12T21:48:25.745Z,102759.22
2023-02-12T21:51:20.827Z,102743.94
2023-02-12T21:54:13.445Z,102753.28
2023-02-12T21:57:02.758Z,102753.84
2023-02-12T21:59:53.389Z,102754.72
2023-02-12T22:02:42.679Z,102737.66
2023-02-12T22:05:34.069Z,102741.84
2023-02-12T22:08:24.831Z,102748.13
2023-02-12T22:11:15.753Z,102730.59
2023-02-12T22:14:05.204Z,102728.13
2023-02-12T22:16:55.781Z,102726.22
2023-02-12T22:19:45.058Z,102719.63
2023-02-12T22:22:34.599Z,102711.16
2023-02-12T22:25:23.847Z,102708.38
2023-02-12T22:28:13.091Z,102712.81
2023-02-12T22:31:07.453Z,102711.88
2023-02-12T22:34:02.194Z,102707.53
2023-02-12T22:36:51.585Z,102705.25
2023-02-12T22:39:40.944Z,102709.41
2023-02-12T22:42:30.280Z,102690.66
2023-02-12T22:45:19.592Z,102705.25
2023-02-12T22:48:08.835Z,102706.06
2023-02-12T22:51:00.207Z,102698.41
2023-02-12T22:53:49.864Z,102706.06
2023-02-12T22:56:39.142Z,102704.94
2023-02-12T22:59:28.800Z,102702.22
2023-02-12T23:02:18.143Z,102690.97
2023-02-12T23:05:07.502Z,102699.16
2023-02-12T23:07:58.144Z,102691.47
2023-02-12T23:10:47.369Z,102701.13
2023-02-12T23:13:37.563Z,102695.94
2023-02-12T23:16:27.865Z,102695.66
2023-02-12T23:19:17.645Z,102693.69
2023-02-12T23:22:06.989Z,102703.56
2023-02-12T23:24:57.660Z,102702.13
2023-02-12T23:27:46.974Z,102706.28
2023-02-12T23:30:36.487Z,102713.94
2023-02-12T23:33:26.236Z,102708.66
2023-02-12T23:36:15.901Z,102710.06
2023-02-12T23:39:06.291Z,102710.06
2023-02-12T23:41:57.167Z,102716.84
2023-02-12T23:44:46.353Z,102717.38
2023-02-12T23:47:35.616Z,102704.72
2023-02-12T23:50:25.362Z,102709.63
2023-02-12T23:53:15.063Z,102721.34
2023-02-12T23:56:04.406Z,102709.91
2023-02-12T23:58:57.413Z,102711.56
